Burton, Ohio
Current Conditions -  °F | °C
As of 12:35 AM on Tuesday 27 Jan 2015 (Local Time) from KLNN Reporting Station
Overcast Overcast  
Wind Chill: 10°   Ceiling: 1700
Heat Index: 20°   Visibility: 10mi
Dew Point: 16°   Wind: 9mph
Humidity: 83%   Direction: 40°NE
Pressure: 29.92"   Gusts: NA
Location:  41.47°N, 81.15°W
Report Text: KLNN 270535Z AUTO 04008KT 10SM BKN017 OVC022 M07/M09 A2992 RMK AO1 T10661091
Loading
Personal Weather Stations






























Interactive Weather Map New forecast layout! Learn more

10-Day Weather Forecast

Advertisements
Track Severe Weather on mobile